createdAt,value
2019-03-30T00:00:31.630Z,9.37
2019-03-30T00:03:02.005Z,9.57
2019-03-30T00:05:32.383Z,8.63
2019-03-30T00:08:03.701Z,8.87
2019-03-30T00:10:34.068Z,8.27
2019-03-30T00:13:04.904Z,7.37
2019-03-30T00:15:35.269Z,8.23
2019-03-30T00:18:05.664Z,7.83
2019-03-30T00:20:36.047Z,9.00
2019-03-30T00:23:06.476Z,9.10
2019-03-30T00:25:36.817Z,9.53
2019-03-30T00:28:07.164Z,10.93
2019-03-30T00:30:37.519Z,11.13
2019-03-30T00:33:07.791Z,11.90
2019-03-30T00:35:38.073Z,13.07
2019-03-30T00:38:08.397Z,12.80
2019-03-30T00:40:39.426Z,10.73
2019-03-30T00:43:10.448Z,12.37
2019-03-30T00:45:41.660Z,11.13
2019-03-30T00:48:13.809Z,12.00
2019-03-30T00:50:45.945Z,10.00
2019-03-30T00:53:16.945Z,11.17
2019-03-30T00:55:57.627Z,10.13
2019-03-30T00:58:28.771Z,11.47
2019-03-30T01:00:59.812Z,8.97
2019-03-30T01:03:30.805Z,9.13
2019-03-30T01:06:01.822Z,8.70
2019-03-30T01:08:32.508Z,6.20
2019-03-30T01:11:03.647Z,7.03
2019-03-30T01:13:34.787Z,9.47
2019-03-30T01:16:05.907Z,7.53
2019-03-30T01:18:36.919Z,8.43
2019-03-30T01:21:20.158Z,9.23
2019-03-30T01:23:51.187Z,7.70
2019-03-30T01:26:22.746Z,9.27
2019-03-30T01:28:53.790Z,8.73
2019-03-30T01:31:24.879Z,9.23
2019-03-30T01:33:57.017Z,9.50
2019-03-30T01:36:28.825Z,10.80
2019-03-30T01:38:59.842Z,12.37
2019-03-30T01:41:30.883Z,13.00
2019-03-30T01:44:01.901Z,13.53
2019-03-30T01:46:32.941Z,13.57
2019-03-30T01:49:03.978Z,13.43
2019-03-30T01:51:35.006Z,14.10
2019-03-30T01:54:06.598Z,12.70
2019-03-30T01:56:37.041Z,12.10
2019-03-30T01:59:07.594Z,12.47
2019-03-30T02:01:48.583Z,13.63
2019-03-30T02:04:19.647Z,12.07
2019-03-30T02:06:50.666Z,14.43
2019-03-30T02:09:21.757Z,17.57
2019-03-30T02:11:52.770Z,18.07
2019-03-30T02:14:24.914Z,17.20
2019-03-30T02:16:56.491Z,17.50
2019-03-30T02:19:27.514Z,17.77
2019-03-30T02:21:58.013Z,15.57
2019-03-30T02:24:28.410Z,16.00
2019-03-30T02:27:00.478Z,14.90
2019-03-30T02:29:30.838Z,14.17
2019-03-30T02:32:01.190Z,13.30
2019-03-30T02:34:31.563Z,13.47
2019-03-30T02:37:01.932Z,12.40
2019-03-30T02:39:32.409Z,12.10
2019-03-30T02:42:02.778Z,12.67
2019-03-30T02:44:34.051Z,13.77
2019-03-30T02:47:04.430Z,16.77
2019-03-30T02:49:35.876Z,16.23
2019-03-30T02:52:06.238Z,17.47
2019-03-30T02:54:36.603Z,17.63
2019-03-30T02:57:07.454Z,16.73
2019-03-30T02:59:37.818Z,17.43
2019-03-30T03:02:08.218Z,17.93
2019-03-30T03:04:38.865Z,16.30
2019-03-30T03:07:09.204Z,16.43
2019-03-30T03:09:39.573Z,16.63
2019-03-30T03:12:09.962Z,17.27
2019-03-30T03:14:41.306Z,16.67
2019-03-30T03:17:11.679Z,16.57
2019-03-30T03:19:42.056Z,14.30
2019-03-30T03:22:12.425Z,15.13
2019-03-30T03:24:42.785Z,14.73
2019-03-30T03:27:13.156Z,14.70
2019-03-30T03:29:44.303Z,15.10
2019-03-30T03:32:14.763Z,15.00
2019-03-30T03:34:45.268Z,14.50
2019-03-30T03:37:15.710Z,14.30
2019-03-30T03:39:46.117Z,12.37
2019-03-30T03:42:16.571Z,12.50
2019-03-30T03:44:46.927Z,15.70
2019-03-30T03:47:17.307Z,15.77
2019-03-30T03:49:47.691Z,14.07
2019-03-30T03:52:18.039Z,13.90
2019-03-30T03:54:48.430Z,12.50
2019-03-30T03:57:18.813Z,11.73
2019-03-30T03:59:49.730Z,11.73
2019-03-30T04:02:20.081Z,11.93
2019-03-30T04:04:50.448Z,12.03
2019-03-30T04:07:20.820Z,11.33
2019-03-30T04:09:51.329Z,10.83
2019-03-30T04:12:22.349Z,10.93
2019-03-30T04:14:52.696Z,11.37
2019-03-30T04:17:23.069Z,12.40
2019-03-30T04:19:53.520Z,12.27
2019-03-30T04:22:23.896Z,13.37
2019-03-30T04:24:54.263Z,14.47
2019-03-30T04:27:24.627Z,14.73
2019-03-30T04:29:54.996Z,14.60
2019-03-30T04:32:25.384Z,13.27
2019-03-30T04:34:55.731Z,12.47
2019-03-30T04:37:26.097Z,11.63
2019-03-30T04:39:56.468Z,12.03
2019-03-30T04:42:26.842Z,12.83
2019-03-30T04:44:57.200Z,11.47
2019-03-30T04:47:27.572Z,11.17
2019-03-30T04:49:57.949Z,12.53
2019-03-30T04:52:28.305Z,14.17
2019-03-30T04:54:58.741Z,13.70
2019-03-30T04:57:29.258Z,13.53
2019-03-30T05:00:00.830Z,12.63
2019-03-30T05:02:31.314Z,8.77
2019-03-30T05:05:01.667Z,11.10
2019-03-30T05:07:32.033Z,12.30
2019-03-30T05:10:02.457Z,11.57
2019-03-30T05:12:32.885Z,13.70
2019-03-30T05:15:03.533Z,14.27
2019-03-30T05:17:46.897Z,14.17
2019-03-30T05:20:06.827Z,16.67
2019-03-30T05:22:37.177Z,14.93
2019-03-30T05:25:07.591Z,13.27
2019-03-30T05:27:38.138Z,14.70
2019-03-30T05:30:08.720Z,14.87
2019-03-30T05:32:41.668Z,15.40
2019-03-30T05:35:11.462Z,16.73
2019-03-30T05:37:41.836Z,17.93
2019-03-30T05:40:12.318Z,17.60
2019-03-30T05:42:42.694Z,20.43
2019-03-30T05:45:13.134Z,18.67
2019-03-30T05:47:43.503Z,20.83
2019-03-30T05:52:45.132Z,20.60
2019-03-30T05:55:15.501Z,21.90
2019-03-30T05:57:45.863Z,21.53
2019-03-30T06:00:18.186Z,20.83
2019-03-30T06:02:48.746Z,22.17
2019-03-30T06:05:19.091Z,28.40
2019-03-30T06:07:49.748Z,30.77
2019-03-30T06:10:20.121Z,31.23
2019-03-30T06:12:50.804Z,32.13
2019-03-30T06:15:21.981Z,32.57
2019-03-30T06:17:52.364Z,36.87
2019-03-30T06:20:22.724Z,38.77
2019-03-30T06:22:53.143Z,40.63
2019-03-30T06:25:23.541Z,42.20
2019-03-30T06:27:53.931Z,40.73
2019-03-30T06:30:27.583Z,40.60
2019-03-30T06:32:57.943Z,40.53
2019-03-30T06:35:28.741Z,37.07
2019-03-30T06:37:59.387Z,33.17
2019-03-30T06:40:29.763Z,27.53
2019-03-30T06:43:00.152Z,29.13
2019-03-30T06:45:30.525Z,27.27
2019-03-30T06:48:00.885Z,26.30
2019-03-30T06:50:31.277Z,24.77
2019-03-30T06:53:01.731Z,25.43
2019-03-30T06:55:32.115Z,23.67
2019-03-30T06:58:02.493Z,23.97
2019-03-30T07:00:34.012Z,24.47
2019-03-30T07:03:05.123Z,25.00
2019-03-30T07:05:39.707Z,22.27
2019-03-30T07:08:12.096Z,20.27
2019-03-30T07:10:44.295Z,22.57
2019-03-30T07:13:15.136Z,21.63
2019-03-30T07:15:49.252Z,20.03
2019-03-30T07:18:20.160Z,20.80
2019-03-30T07:20:50.557Z,21.00
2019-03-30T07:23:20.943Z,19.83
2019-03-30T07:25:51.411Z,23.97
2019-03-30T07:28:21.990Z,22.60
2019-03-30T07:30:53.474Z,19.57
2019-03-30T07:33:23.843Z,20.57
2019-03-30T07:35:54.214Z,19.43
2019-03-30T07:38:24.596Z,19.80
2019-03-30T07:40:54.964Z,17.60
2019-03-30T07:43:25.336Z,16.87
2019-03-30T07:45:55.691Z,15.90
2019-03-30T07:48:26.333Z,20.70
2019-03-30T07:50:56.812Z,15.53
2019-03-30T07:53:27.408Z,17.73
2019-03-30T07:56:08.269Z,16.50
2019-03-30T07:58:31.090Z,22.77
2019-03-30T08:01:02.312Z,18.50
2019-03-30T08:03:32.742Z,18.67
2019-03-30T08:06:03.762Z,17.77
2019-03-30T08:08:34.142Z,18.93
2019-03-30T08:11:04.531Z,19.27
2019-03-30T08:13:35.056Z,22.93
2019-03-30T08:16:05.446Z,22.33
2019-03-30T08:18:35.827Z,27.33
2019-03-30T08:21:06.196Z,26.23
2019-03-30T08:23:40.551Z,28.03
2019-03-30T08:26:08.670Z,26.63
2019-03-30T08:28:39.063Z,23.87
2019-03-30T08:31:09.443Z,23.67
2019-03-30T08:33:39.824Z,26.43
2019-03-30T08:36:10.299Z,24.37
2019-03-30T08:38:40.712Z,25.83
2019-03-30T08:41:11.129Z,22.73
2019-03-30T08:43:41.527Z,22.97
2019-03-30T08:46:13.507Z,23.30
2019-03-30T08:48:43.923Z,25.17
2019-03-30T08:51:14.411Z,25.80
2019-03-30T08:53:54.450Z,23.80
2019-03-30T08:56:17.073Z,25.10
2019-03-30T08:58:47.469Z,23.80
2019-03-30T09:01:17.847Z,19.92
2019-03-30T09:03:49.288Z,21.55
2019-03-30T09:06:21.276Z,18.42
2019-03-30T09:08:51.815Z,16.65
2019-03-30T09:11:22.249Z,20.52
2019-03-30T09:13:52.647Z,18.20
2019-03-30T09:16:23.218Z,14.90
2019-03-30T09:18:55.051Z,20.32
2019-03-30T09:21:25.480Z,15.10
2019-03-30T09:24:09.406Z,15.83
2019-03-30T09:26:32.084Z,13.25
2019-03-30T09:29:02.499Z,16.77
2019-03-30T09:31:32.887Z,17.82
2019-03-30T09:34:03.265Z,17.55
2019-03-30T09:36:33.756Z,16.75
2019-03-30T09:39:06.458Z,19.90
2019-03-30T09:41:37.034Z,20.27
2019-03-30T09:44:07.424Z,19.25
2019-03-30T09:46:37.971Z,19.12
2019-03-30T09:49:08.548Z,19.37
2019-03-30T09:51:39.052Z,20.60
2019-03-30T09:54:22.778Z,19.07
2019-03-30T09:56:41.909Z,19.60
2019-03-30T09:59:12.380Z,19.87
2019-03-30T10:01:42.762Z,19.67
2019-03-30T10:04:13.132Z,19.75
2019-03-30T10:06:43.494Z,19.95
2019-03-30T10:09:13.872Z,20.65
2019-03-30T10:11:44.336Z,20.97
2019-03-30T10:14:14.993Z,20.20
2019-03-30T10:16:48.664Z,20.97
2019-03-30T10:19:17.687Z,20.08
2019-03-30T10:21:48.188Z,21.68
2019-03-30T10:24:18.593Z,21.30
2019-03-30T10:26:49.053Z,21.87
2019-03-30T10:29:19.792Z,20.50
2019-03-30T10:31:50.164Z,22.90
2019-03-30T10:34:20.530Z,22.97
2019-03-30T10:36:51.132Z,21.73
2019-03-30T10:39:22.868Z,24.43
2019-03-30T10:41:53.552Z,22.70
2019-03-30T10:44:23.915Z,22.07
2019-03-30T10:46:54.297Z,19.83
2019-03-30T10:49:24.666Z,19.60
2019-03-30T10:51:57.324Z,20.60
2019-03-30T10:54:29.791Z,20.17
2019-03-30T10:57:00.166Z,20.77
2019-03-30T10:59:30.575Z,19.67
2019-03-30T11:02:00.971Z,20.57
2019-03-30T11:04:31.351Z,20.97
2019-03-30T11:07:01.735Z,21.97
2019-03-30T11:09:32.111Z,21.43
2019-03-30T11:12:02.475Z,22.60
2019-03-30T11:14:32.848Z,24.33
2019-03-30T11:17:03.248Z,25.07
2019-03-30T11:19:33.647Z,22.77
2019-03-30T11:22:04.026Z,26.43
2019-03-30T11:24:36.063Z,26.07
2019-03-30T11:27:06.447Z,25.13
2019-03-30T11:29:36.821Z,23.70
2019-03-30T11:32:07.165Z,23.37
2019-03-30T11:34:37.571Z,26.13
2019-03-30T11:37:07.917Z,25.67
2019-03-30T11:39:38.349Z,25.30
2019-03-30T11:42:08.717Z,24.77
2019-03-30T11:44:39.108Z,24.10
2019-03-30T11:47:09.507Z,24.53
2019-03-30T11:49:39.858Z,25.77
2019-03-30T11:52:10.218Z,23.53
2019-03-30T11:54:40.569Z,27.43
2019-03-30T11:57:10.951Z,25.33
2019-03-30T11:59:42.701Z,26.17
2019-03-30T12:02:27.016Z,24.00
2019-03-30T17:57:38.242Z,44.80
2019-03-30T18:00:10.724Z,80.87
2019-03-30T18:02:41.278Z,77.53
2019-03-30T18:05:13.020Z,68.80
2019-03-30T18:07:43.549Z,56.63
2019-03-30T18:10:13.936Z,93.43
2019-03-30T18:12:44.343Z,50.30
2019-03-30T18:15:14.863Z,59.50
2019-03-30T18:17:45.467Z,52.77
2019-03-30T18:20:16.740Z,95.17
2019-03-30T18:22:47.364Z,66.43
2019-03-30T18:25:17.816Z,66.17
2019-03-30T18:27:48.283Z,68.07
2019-03-30T18:30:33.887Z,67.23
2019-03-30T18:33:04.515Z,64.43
2019-03-30T18:35:37.325Z,43.70
2019-03-30T18:38:07.698Z,41.23
2019-03-30T18:40:38.455Z,43.43
2019-03-30T18:43:09.195Z,44.00
2019-03-30T18:45:39.590Z,40.70
2019-03-30T18:48:14.261Z,40.70
2019-03-30T18:50:45.242Z,40.07
2019-03-30T18:53:16.050Z,39.50
2019-03-30T18:55:46.455Z,38.60
2019-03-30T18:58:17.082Z,38.03
2019-03-30T19:00:47.690Z,34.90
2019-03-30T19:03:20.201Z,32.07
2019-03-30T19:05:50.913Z,31.80
2019-03-30T19:08:21.450Z,27.73
2019-03-30T19:10:51.811Z,26.13
2019-03-30T19:13:23.434Z,25.03
2019-03-30T19:15:53.849Z,30.57
2019-03-30T19:18:25.222Z,26.40
2019-03-30T19:20:55.632Z,26.53
2019-03-30T19:23:26.149Z,25.77
2019-03-30T19:25:56.560Z,27.73
2019-03-30T19:28:27.306Z,26.80
2019-03-30T19:30:58.787Z,27.77
2019-03-30T19:33:29.532Z,26.63
2019-03-30T19:35:59.919Z,28.70
2019-03-30T19:38:30.563Z,27.47
2019-03-30T19:41:01.025Z,27.00
2019-03-30T19:43:31.408Z,27.30
2019-03-30T19:46:01.790Z,28.53
2019-03-30T19:48:32.379Z,27.20
2019-03-30T19:51:02.952Z,29.07
2019-03-30T19:53:34.838Z,31.63
2019-03-30T19:56:05.713Z,26.73
2019-03-30T19:58:36.449Z,29.03
2019-03-30T20:01:08.494Z,35.27
2019-03-30T20:03:38.991Z,33.53
2019-03-30T20:06:09.439Z,30.97
2019-03-30T20:08:39.840Z,35.37
2019-03-30T20:11:11.701Z,45.20
2019-03-30T20:13:42.104Z,43.83
2019-03-30T20:16:12.729Z,39.80
2019-03-30T20:18:43.144Z,42.17
2019-03-30T20:21:14.535Z,48.47
2019-03-30T20:23:44.956Z,46.70
2019-03-30T20:26:16.423Z,72.93
2019-03-30T20:28:46.785Z,75.13
2019-03-30T20:31:18.829Z,75.30
2019-03-30T20:33:49.317Z,131.07
2019-03-30T20:36:19.783Z,178.10
2019-03-30T20:38:51.324Z,71.47
2019-03-30T20:41:23.867Z,67.00
2019-03-30T20:43:54.267Z,67.40
2019-03-30T20:46:24.720Z,68.90
2019-03-30T20:48:55.091Z,64.03
2019-03-30T20:51:25.829Z,96.27
2019-03-30T20:53:56.317Z,81.10
2019-03-30T20:56:26.734Z,128.80
2019-03-30T20:58:57.240Z,78.63
2019-03-30T21:01:27.654Z,67.47
2019-03-30T21:03:58.068Z,59.07
2019-03-30T21:06:28.544Z,58.17
2019-03-30T21:08:59.033Z,56.60
2019-03-30T21:11:29.510Z,55.20
2019-03-30T21:14:00.704Z,54.70
2019-03-30T21:16:31.386Z,55.37
2019-03-30T21:19:01.789Z,52.07
2019-03-30T21:21:32.162Z,52.80
2019-03-30T21:24:03.626Z,52.30
2019-03-30T21:26:34.376Z,54.43
2019-03-30T21:29:04.952Z,51.27
2019-03-30T21:31:35.400Z,53.03
2019-03-30T21:34:06.855Z,52.77
2019-03-30T21:36:37.323Z,50.13
2019-03-30T21:39:09.010Z,49.03
2019-03-30T21:41:39.726Z,49.43
2019-03-30T21:44:21.329Z,52.20
2019-03-30T21:46:42.757Z,52.33
2019-03-30T21:49:13.147Z,48.17
2019-03-30T21:51:43.601Z,49.90
2019-03-30T21:54:13.999Z,48.23
2019-03-30T21:56:44.401Z,48.03
2019-03-30T21:59:14.794Z,47.30
2019-03-30T22:01:45.177Z,47.37
2019-03-30T22:04:15.571Z,48.17
2019-03-30T22:06:45.984Z,48.47
2019-03-30T22:09:16.372Z,48.80
2019-03-30T22:11:46.732Z,46.60
2019-03-30T22:14:17.130Z,46.07
2019-03-30T22:16:47.514Z,48.53
2019-03-30T22:19:17.883Z,45.87
2019-03-30T22:21:48.260Z,44.80
2019-03-30T22:24:18.636Z,44.63
2019-03-30T22:26:49.742Z,42.67
2019-03-30T22:29:20.154Z,41.23
2019-03-30T22:31:50.545Z,41.10
2019-03-30T22:34:20.946Z,41.70
2019-03-30T22:36:51.323Z,42.57
2019-03-30T22:39:22.105Z,42.97
2019-03-30T22:41:52.484Z,46.57
2019-03-30T22:44:22.935Z,43.67
2019-03-30T22:46:52.311Z,45.67
2019-03-30T22:49:22.684Z,44.37
2019-03-30T22:51:53.151Z,42.10
2019-03-30T22:54:23.539Z,42.90
2019-03-30T22:56:53.949Z,41.37
2019-03-30T22:59:24.295Z,41.47
2019-03-30T23:01:54.723Z,39.30
2019-03-30T23:04:25.100Z,38.93
2019-03-30T23:06:55.493Z,38.43
2019-03-30T23:09:25.870Z,39.23
2019-03-30T23:11:56.252Z,40.07
2019-03-30T23:14:26.647Z,38.33
2019-03-30T23:16:57.008Z,39.90
2019-03-30T23:19:27.356Z,40.13
2019-03-30T23:21:57.796Z,40.60
2019-03-30T23:24:28.150Z,38.93
2019-03-30T23:26:58.522Z,40.10
2019-03-30T23:29:29.233Z,39.20
2019-03-30T23:31:59.603Z,38.03
2019-03-30T23:34:30.495Z,37.13
2019-03-30T23:37:00.857Z,38.07
2019-03-30T23:39:31.220Z,37.97
2019-03-30T23:42:02.528Z,37.97
2019-03-30T23:44:32.906Z,35.93
2019-03-30T23:47:03.265Z,36.07
2019-03-30T23:49:33.645Z,37.23
2019-03-30T23:52:04.310Z,36.27
2019-03-30T23:54:34.699Z,38.10
2019-03-30T23:57:05.053Z,40.87
2019-03-30T23:59:35.433Z,40.80
